createdAt,value
2023-04-15T00:01:13.214Z,5.30
2023-04-15T00:03:40.278Z,5.30
2023-04-15T00:06:07.593Z,5.20
2023-04-15T00:08:34.620Z,5.20
2023-04-15T00:11:05.526Z,5.10
2023-04-15T00:13:35.842Z,5.10
2023-04-15T00:16:02.828Z,5.10
2023-04-15T00:18:29.920Z,5.10
2023-04-15T00:20:56.860Z,5.10
2023-04-15T00:23:23.758Z,5.10
2023-04-15T00:25:50.985Z,5.10
2023-04-15T00:28:18.477Z,5.10
2023-04-15T00:30:45.789Z,5.00
2023-04-15T00:33:16.522Z,5.00
2023-04-15T00:35:43.460Z,5.00
2023-04-15T00:38:10.288Z,5.00
2023-04-15T00:40:37.866Z,4.90
2023-04-15T00:43:05.518Z,4.90
2023-04-15T00:45:33.304Z,4.90
2023-04-15T00:48:00.454Z,4.80
2023-04-15T00:50:27.408Z,4.80
2023-04-15T00:52:54.205Z,4.70
2023-04-15T00:55:21.120Z,4.70
2023-04-15T00:57:48.354Z,4.70
2023-04-15T01:00:16.516Z,4.70
2023-04-15T01:02:43.633Z,4.60
2023-04-15T01:05:10.556Z,4.60
2023-04-15T01:07:37.421Z,4.50
2023-04-15T01:10:04.971Z,4.50
2023-04-15T01:12:34.230Z,4.40
2023-04-15T01:15:02.347Z,4.40
2023-04-15T01:17:29.424Z,4.40
2023-04-15T01:19:59.543Z,4.40
2023-04-15T01:22:27.595Z,4.30
2023-04-15T01:25:11.513Z,4.30
2023-04-15T01:27:40.809Z,4.20
2023-04-15T01:30:08.762Z,4.20
2023-04-15T01:32:35.749Z,4.20
2023-04-15T01:35:21.522Z,4.10
2023-04-15T01:37:49.051Z,4.10
2023-04-15T01:40:17.591Z,4.10
2023-04-15T01:42:45.689Z,4.00
2023-04-15T01:45:14.011Z,4.00
2023-04-15T01:47:42.161Z,4.00
2023-04-15T01:50:11.374Z,3.90
2023-04-15T01:52:39.475Z,3.90
2023-04-15T01:55:08.492Z,3.90
2023-04-15T01:57:37.048Z,3.90
2023-04-15T02:00:07.611Z,3.80
2023-04-15T02:02:41.595Z,3.80
2023-04-15T02:05:09.847Z,3.70
2023-04-15T02:07:38.609Z,3.70
2023-04-15T02:10:06.896Z,3.70
2023-04-15T02:12:36.880Z,3.60
2023-04-15T02:15:05.551Z,3.60
2023-04-15T02:17:37.545Z,3.60
2023-04-15T02:20:06.240Z,3.50
2023-04-15T02:22:34.831Z,3.50
2023-04-15T02:25:02.920Z,3.60
2023-04-15T02:27:33.301Z,3.50
2023-04-15T02:30:01.606Z,3.50
2023-04-15T02:32:29.710Z,3.50
2023-04-15T02:35:02.893Z,3.40
2023-04-15T02:37:31.784Z,3.40
2023-04-15T02:40:00.898Z,3.40
2023-04-15T02:42:30.267Z,3.40
2023-04-15T02:45:00.973Z,3.30
2023-04-15T02:47:34.200Z,3.30
2023-04-15T02:50:07.819Z,3.30
2023-04-15T02:52:35.921Z,3.20
2023-04-15T02:55:05.134Z,3.20
2023-04-15T02:57:33.294Z,3.20
2023-04-15T03:00:09.485Z,3.10
2023-04-15T03:02:40.239Z,3.10
2023-04-15T03:05:12.535Z,3.10
2023-04-15T03:07:42.470Z,3.10
2023-04-15T03:10:10.992Z,3.00
2023-04-15T03:12:39.452Z,3.00
2023-04-15T03:15:08.271Z,3.00
2023-04-15T03:17:40.070Z,2.90
2023-04-15T03:20:09.468Z,3.00
2023-04-15T03:22:37.561Z,2.90
2023-04-15T03:25:06.131Z,2.90
2023-04-15T03:27:34.739Z,2.90
2023-04-15T03:30:06.512Z,2.90
2023-04-15T03:32:36.368Z,2.90
2023-04-15T03:35:04.817Z,2.90
2023-04-15T03:37:31.643Z,2.90
2023-04-15T03:39:59.647Z,2.80
2023-04-15T03:42:27.721Z,2.80
2023-04-15T03:44:55.840Z,2.80
2023-04-15T03:47:24.007Z,2.80
2023-04-15T03:49:52.048Z,2.70
2023-04-15T03:52:20.056Z,2.80
2023-04-15T03:54:48.065Z,2.70
2023-04-15T03:57:16.196Z,2.80
2023-04-15T03:59:44.232Z,2.70
2023-04-15T04:02:12.325Z,2.70
2023-04-15T04:04:40.665Z,2.70
2023-04-15T04:07:08.703Z,2.60
2023-04-15T04:09:39.062Z,2.60
2023-04-15T04:12:07.165Z,2.60
2023-04-15T04:14:35.186Z,2.60
2023-04-15T04:17:03.459Z,2.60
2023-04-15T04:19:31.527Z,2.50
2023-04-15T04:21:59.545Z,2.50
2023-04-15T04:24:27.650Z,2.40
2023-04-15T04:26:57.101Z,2.40
2023-04-15T04:29:25.112Z,2.40
2023-04-15T04:31:53.132Z,2.40
2023-04-15T04:34:21.285Z,2.30
2023-04-15T04:36:49.274Z,2.30
2023-04-15T04:39:17.269Z,2.30
2023-04-15T04:41:45.308Z,2.30
2023-04-15T04:44:13.293Z,2.40
2023-04-15T04:46:41.265Z,2.40
2023-04-15T04:49:09.271Z,2.40
2023-04-15T04:51:37.414Z,2.30
2023-04-15T04:54:05.439Z,2.30
2023-04-15T04:56:34.600Z,2.30
2023-04-15T04:59:02.965Z,2.30
2023-04-15T05:01:31.343Z,2.30
2023-04-15T05:03:59.940Z,2.30
2023-04-15T05:06:30.421Z,2.30
2023-04-15T05:08:58.398Z,2.40
2023-04-15T05:11:26.600Z,2.40
2023-04-15T05:13:54.597Z,2.40
2023-04-15T05:16:22.708Z,2.40
2023-04-15T05:18:50.713Z,2.40
2023-04-15T05:21:19.152Z,2.40
2023-04-15T05:23:47.367Z,2.40
2023-04-15T05:26:15.655Z,2.40
2023-04-15T05:28:43.615Z,2.50
2023-04-15T05:31:11.651Z,2.50
2023-04-15T05:33:40.450Z,2.60
2023-04-15T05:36:08.706Z,2.60
2023-04-15T05:38:37.331Z,2.70
2023-04-15T05:41:05.579Z,2.70
2023-04-15T05:43:33.574Z,2.80
2023-04-15T05:46:01.686Z,2.80
2023-04-15T05:48:29.757Z,2.90
2023-04-15T05:50:58.329Z,3.00
2023-04-15T05:53:26.554Z,3.00
2023-04-15T05:55:54.545Z,3.10
2023-04-15T05:58:22.562Z,3.10
2023-04-15T06:00:50.633Z,3.20
2023-04-15T06:03:18.756Z,3.30
2023-04-15T06:05:48.249Z,3.40
2023-04-15T06:08:16.256Z,3.50
2023-04-15T06:10:44.317Z,3.60
2023-04-15T06:13:12.919Z,3.70
2023-04-15T06:15:41.168Z,3.80
2023-04-15T06:18:09.162Z,3.90
2023-04-15T06:20:37.520Z,4.00
2023-04-15T06:23:05.548Z,4.00
2023-04-15T06:25:33.586Z,4.20
2023-04-15T06:28:02.238Z,4.30
2023-04-15T06:30:30.476Z,4.50
2023-04-15T06:32:58.877Z,4.60
2023-04-15T06:35:27.500Z,4.70
2023-04-15T06:37:55.617Z,4.80
2023-04-15T06:40:23.629Z,5.00
2023-04-15T06:42:51.636Z,5.10
2023-04-15T06:45:19.678Z,5.20
2023-04-15T06:47:47.716Z,5.40
2023-04-15T06:50:15.813Z,5.40
2023-04-15T06:52:43.975Z,5.50
2023-04-15T06:55:12.309Z,5.60
2023-04-15T06:57:40.586Z,5.70
2023-04-15T07:00:11.086Z,5.70
2023-04-15T07:02:39.403Z,5.80
2023-04-15T07:05:08.310Z,5.90
2023-04-15T07:07:36.682Z,6.00
2023-04-15T07:10:05.495Z,6.10
2023-04-15T07:12:33.608Z,6.20
2023-04-15T07:15:01.669Z,6.30
2023-04-15T07:17:30.851Z,6.50
2023-04-15T07:19:59.115Z,6.60
2023-04-15T07:22:27.159Z,6.70
2023-04-15T07:24:55.160Z,6.80
2023-04-15T07:27:23.156Z,6.90
2023-04-15T07:29:52.027Z,7.00
2023-04-15T07:32:20.287Z,7.10
2023-04-15T07:34:48.292Z,7.20
2023-04-15T07:37:16.389Z,7.40
2023-04-15T07:39:44.441Z,7.50
2023-04-15T07:42:12.505Z,7.60
2023-04-15T07:44:40.541Z,7.70
2023-04-15T07:47:08.547Z,7.80
2023-04-15T07:49:36.550Z,7.90
2023-04-15T07:52:04.721Z,8.00
2023-04-15T07:54:33.073Z,8.20
2023-04-15T07:57:01.393Z,8.30
2023-04-15T07:59:31.004Z,8.50
2023-04-15T08:01:59.487Z,8.60
2023-04-15T08:04:28.640Z,8.70
2023-04-15T08:06:56.829Z,8.80
2023-04-15T08:09:24.995Z,8.90
2023-04-15T08:11:53.511Z,9.00
2023-04-15T08:14:21.551Z,9.00
2023-04-15T08:16:49.582Z,9.00
2023-04-15T08:19:17.686Z,9.20
2023-04-15T08:21:46.047Z,9.40
2023-04-15T08:24:14.402Z,9.80
2023-04-15T08:26:42.653Z,10.00
2023-04-15T08:29:10.638Z,10.10
2023-04-15T08:31:38.734Z,10.20
2023-04-15T08:34:06.866Z,10.30
2023-04-15T08:36:35.218Z,10.40
2023-04-15T08:39:04.884Z,10.50
2023-04-15T08:41:40.229Z,10.70
2023-04-15T08:44:09.488Z,10.70
2023-04-15T08:46:39.396Z,10.70
2023-04-15T08:49:10.342Z,10.60
2023-04-15T08:51:40.276Z,10.50
2023-04-15T08:54:12.009Z,10.40
2023-04-15T08:56:40.786Z,10.40
2023-04-15T08:59:09.770Z,10.30
2023-04-15T09:01:38.427Z,10.20
2023-04-15T09:04:08.170Z,10.10
2023-04-15T09:06:36.402Z,10.10
2023-04-15T09:09:04.454Z,10.10
2023-04-15T09:11:32.598Z,10.10
2023-04-15T09:14:00.584Z,10.10
2023-04-15T09:16:28.632Z,10.00
2023-04-15T09:18:56.743Z,10.10
2023-04-15T09:21:25.133Z,10.10
2023-04-15T09:23:59.303Z,10.10
2023-04-15T09:26:38.320Z,10.20
2023-04-15T09:29:07.491Z,10.10
2023-04-15T09:31:36.898Z,10.20
2023-04-15T09:34:05.388Z,10.20
2023-04-15T09:36:51.752Z,10.20
2023-04-15T09:39:20.043Z,10.20
2023-04-15T09:42:04.268Z,10.10
2023-04-15T09:44:32.397Z,10.10
2023-04-15T09:47:00.746Z,10.10
2023-04-15T09:49:28.925Z,10.20
2023-04-15T09:52:06.298Z,10.10
2023-04-15T09:54:38.773Z,10.00
2023-04-15T09:57:08.929Z,10.10
2023-04-15T09:59:37.013Z,10.10
2023-04-15T10:02:08.787Z,10.10
2023-04-15T10:04:40.742Z,10.10
2023-04-15T10:07:09.820Z,10.00
2023-04-15T10:09:39.486Z,10.00
2023-04-15T10:12:07.667Z,10.00
2023-04-15T10:14:38.617Z,10.10
2023-04-15T10:17:11.015Z,10.10
2023-04-15T10:19:39.158Z,10.00
2023-04-15T10:22:08.229Z,10.00
2023-04-15T10:24:37.283Z,10.00
2023-04-15T10:27:06.414Z,10.00
2023-04-15T10:29:35.051Z,10.10
2023-04-15T10:32:03.473Z,10.10
2023-04-15T10:34:32.073Z,10.10
2023-04-15T10:37:03.997Z,10.10
2023-04-15T10:39:38.054Z,10.10
2023-04-15T10:42:17.311Z,10.10
2023-04-15T10:44:49.688Z,10.10
2023-04-15T10:47:21.132Z,10.20
2023-04-15T10:49:49.852Z,10.20
2023-04-15T10:52:23.965Z,10.30
2023-04-15T10:55:16.357Z,10.30
2023-04-15T10:57:45.025Z,10.20
2023-04-15T11:00:17.889Z,10.20
2023-04-15T11:03:13.432Z,10.10
2023-04-15T11:05:41.585Z,10.00
2023-04-15T11:08:13.551Z,10.00
2023-04-15T11:10:41.548Z,10.00
2023-04-15T11:13:09.524Z,10.00
2023-04-15T11:15:44.838Z,10.00
2023-04-15T11:18:18.446Z,10.10
2023-04-15T11:20:56.407Z,10.00
2023-04-15T11:23:46.571Z,9.90
2023-04-15T11:26:15.374Z,9.90
2023-04-15T11:28:45.303Z,9.90
2023-04-15T11:31:15.691Z,9.90
2023-04-15T11:33:47.937Z,9.90
2023-04-15T11:36:16.004Z,9.80
2023-04-15T11:38:45.051Z,9.80
2023-04-15T11:41:13.238Z,9.80
2023-04-15T11:43:41.391Z,9.70
2023-04-15T11:46:09.592Z,9.70
2023-04-15T11:48:45.903Z,9.70
2023-04-15T11:51:14.746Z,9.70
2023-04-15T11:53:48.639Z,9.80
2023-04-15T11:56:21.019Z,9.80
2023-04-15T11:58:50.643Z,9.80
2023-04-15T12:01:17.759Z,9.80
2023-04-15T12:03:49.313Z,9.80
2023-04-15T12:06:24.597Z,9.80
2023-04-15T12:09:06.743Z,9.80
2023-04-15T12:11:34.974Z,9.90
2023-04-15T12:14:21.155Z,10.00
2023-04-15T12:16:51.572Z,10.00
2023-04-15T12:19:25.208Z,10.00
2023-04-15T12:21:58.269Z,9.90
2023-04-15T12:24:26.901Z,9.90
2023-04-15T12:26:57.024Z,9.90
2023-04-15T12:29:29.011Z,9.90
2023-04-15T12:31:57.796Z,9.90
2023-04-15T12:34:31.339Z,9.90
2023-04-15T12:37:00.173Z,9.80
2023-04-15T12:39:30.632Z,9.70
2023-04-15T12:41:58.670Z,9.70
2023-04-15T12:44:25.623Z,9.70
2023-04-15T12:46:55.874Z,9.60
2023-04-15T12:49:23.769Z,9.60
2023-04-15T12:51:52.172Z,9.60
2023-04-15T12:54:19.380Z,9.60
2023-04-15T12:56:48.307Z,9.60
2023-04-15T12:59:16.118Z,9.70
2023-04-15T13:01:43.262Z,9.80
2023-04-15T13:04:10.461Z,9.70
2023-04-15T13:06:38.336Z,9.70
2023-04-15T13:09:06.081Z,9.80
2023-04-15T13:11:34.095Z,9.90
2023-04-15T13:14:02.782Z,9.90
2023-04-15T13:16:30.103Z,9.90
2023-04-15T13:18:56.896Z,10.00
2023-04-15T13:21:24.090Z,10.00
2023-04-15T13:23:51.378Z,10.00
2023-04-15T13:26:18.801Z,10.00
2023-04-15T13:28:46.230Z,9.90
2023-04-15T13:31:12.976Z,9.90
2023-04-15T13:33:39.905Z,9.90
2023-04-15T13:36:07.062Z,9.80
2023-04-15T13:38:33.831Z,9.80
2023-04-15T13:41:00.848Z,9.80
2023-04-15T13:43:28.357Z,9.80
2023-04-15T13:45:55.266Z,9.80
2023-04-15T13:48:22.134Z,9.70
2023-04-15T13:50:48.917Z,9.70
2023-04-15T13:53:16.399Z,9.80
2023-04-15T13:55:43.209Z,9.80
2023-04-15T13:58:11.167Z,9.70
2023-04-15T14:00:38.101Z,9.70
2023-04-15T14:03:05.280Z,9.70
2023-04-15T14:05:32.975Z,9.60
2023-04-15T14:08:00.747Z,9.60
2023-04-15T14:10:27.699Z,9.60
2023-04-15T14:12:54.518Z,9.60
2023-04-15T14:15:21.509Z,9.60
2023-04-15T14:17:48.427Z,9.60
2023-04-15T14:20:17.140Z,9.60
2023-04-15T14:22:44.260Z,9.50
2023-04-15T14:25:15.139Z,9.60
2023-04-15T14:27:47.040Z,9.50
2023-04-15T14:30:14.174Z,9.50
2023-04-15T14:32:41.048Z,9.50
2023-04-15T14:35:08.079Z,9.50
2023-04-15T14:37:34.975Z,9.40
2023-04-15T14:40:01.886Z,9.40
2023-04-15T14:42:28.706Z,9.40
2023-04-15T14:44:55.465Z,9.40
2023-04-15T14:47:22.337Z,9.30
2023-04-15T14:49:49.208Z,9.30
2023-04-15T14:52:16.088Z,9.30
2023-04-15T14:54:42.842Z,9.40
2023-04-15T14:57:09.667Z,9.40
2023-04-15T14:59:36.503Z,9.40
2023-04-15T15:02:03.902Z,9.50
2023-04-15T15:04:33.228Z,9.40
2023-04-15T15:07:00.182Z,9.40
2023-04-15T15:09:27.360Z,9.40
2023-04-15T15:11:54.194Z,9.40
2023-04-15T15:14:21.710Z,9.40
2023-04-15T15:16:48.987Z,9.40
2023-04-15T15:19:15.831Z,9.30
2023-04-15T15:21:42.626Z,9.40
2023-04-15T15:24:09.396Z,9.30
2023-04-15T15:26:36.453Z,9.30
2023-04-15T15:29:04.088Z,9.30
2023-04-15T15:31:31.079Z,9.20
2023-04-15T15:33:57.930Z,9.20
2023-04-15T15:36:24.822Z,9.20
2023-04-15T15:38:52.122Z,9.10
2023-04-15T15:41:18.940Z,9.10
2023-04-15T15:43:45.867Z,9.10
2023-04-15T15:46:12.716Z,9.10
2023-04-15T15:48:39.527Z,9.10
2023-04-15T15:51:06.363Z,9.10
2023-04-15T15:53:33.957Z,9.10
2023-04-15T15:56:01.213Z,9.10
2023-04-15T15:58:28.039Z,9.10
2023-04-15T16:00:54.870Z,9.00
2023-04-15T16:03:22.640Z,9.00
2023-04-15T16:05:49.723Z,9.10
2023-04-15T16:08:16.877Z,9.00
2023-04-15T16:10:45.569Z,9.00
2023-04-15T16:13:14.225Z,9.00
2023-04-15T16:15:41.089Z,9.00
2023-04-15T16:18:07.890Z,9.00
2023-04-15T16:20:34.711Z,8.90
2023-04-15T16:23:11.625Z,8.90
2023-04-15T16:25:38.493Z,8.90
2023-04-15T16:28:11.786Z,8.80
2023-04-15T16:30:49.809Z,8.80
2023-04-15T16:33:16.650Z,8.80
2023-04-15T16:35:43.443Z,8.80
2023-04-15T16:38:10.232Z,8.80
2023-04-15T16:40:37.756Z,8.80
2023-04-15T16:43:04.692Z,8.80
2023-04-15T16:45:31.468Z,8.80
2023-04-15T16:47:58.314Z,8.70
2023-04-15T16:50:25.180Z,8.70
2023-04-15T16:52:52.878Z,8.70
2023-04-15T16:55:19.800Z,8.70
2023-04-15T16:58:02.517Z,8.60
2023-04-15T17:00:36.049Z,8.60
2023-04-15T17:03:03.153Z,8.60
2023-04-15T17:05:30.981Z,8.60
2023-04-15T17:07:58.117Z,8.60
2023-04-15T17:10:25.033Z,8.60
2023-04-15T17:12:52.592Z,8.60
2023-04-15T17:15:20.224Z,8.60
2023-04-15T17:17:50.247Z,8.60
2023-04-15T17:20:17.444Z,8.50
2023-04-15T17:22:44.932Z,8.50
2023-04-15T17:25:13.703Z,8.50
2023-04-15T17:27:43.782Z,8.50
2023-04-15T17:30:16.541Z,8.50
2023-04-15T17:33:03.397Z,8.40
2023-04-15T17:36:10.086Z,8.50
2023-04-15T17:38:56.952Z,8.40
2023-04-15T17:41:43.683Z,8.40
2023-04-15T17:44:30.959Z,8.40
2023-04-15T17:47:17.824Z,8.40
2023-04-15T17:50:04.853Z,8.40
2023-04-15T17:52:51.603Z,8.40
2023-04-15T17:55:38.340Z,8.40
2023-04-15T17:58:27.110Z,8.40
2023-04-15T18:01:13.822Z,8.40
2023-04-15T18:04:00.778Z,8.40
2023-04-15T18:06:47.566Z,8.40
2023-04-15T18:09:34.309Z,8.40
2023-04-15T18:12:21.107Z,8.40
2023-04-15T18:15:09.385Z,8.40
2023-04-15T18:17:56.220Z,8.30
2023-04-15T18:20:23.029Z,8.30
2023-04-15T18:22:51.042Z,8.30
2023-04-15T18:25:18.434Z,8.30
2023-04-15T18:27:45.596Z,8.30
2023-04-15T18:30:13.179Z,8.30
2023-04-15T18:32:40.870Z,8.30
2023-04-15T18:35:08.257Z,8.30
2023-04-15T18:37:35.389Z,8.30
2023-04-15T18:40:02.332Z,8.30
2023-04-15T18:42:29.171Z,8.30
2023-04-15T18:44:56.043Z,8.30
2023-04-15T18:47:24.633Z,8.30
2023-04-15T18:49:52.691Z,8.30
2023-04-15T18:52:19.679Z,8.30
2023-04-15T18:54:46.473Z,8.30
2023-04-15T18:57:13.264Z,8.30
2023-04-15T18:59:47.661Z,8.30
2023-04-15T19:02:14.541Z,8.30
2023-04-15T19:04:41.688Z,8.30
2023-04-15T19:07:09.660Z,8.30
2023-04-15T19:09:36.608Z,8.20
2023-04-15T19:12:03.634Z,8.20
2023-04-15T19:14:30.500Z,8.20
2023-04-15T19:16:57.380Z,8.20
2023-04-15T19:19:24.320Z,8.20
2023-04-15T19:21:52.460Z,8.20
2023-04-15T19:24:19.681Z,8.20
2023-04-15T19:26:50.004Z,8.20
2023-04-15T19:29:17.512Z,8.20
2023-04-15T19:31:44.286Z,8.10
2023-04-15T19:34:11.223Z,8.10
2023-04-15T19:36:38.158Z,8.10
2023-04-15T19:39:06.019Z,8.10
2023-04-15T19:41:33.238Z,8.10
2023-04-15T19:44:00.330Z,8.10
2023-04-15T19:46:27.797Z,8.20
2023-04-15T19:48:55.252Z,8.20
2023-04-15T19:51:22.101Z,8.20
2023-04-15T19:53:53.791Z,8.20
2023-04-15T19:56:20.794Z,8.20
2023-04-15T19:58:52.605Z,8.20
2023-04-15T20:01:20.389Z,8.20
2023-04-15T20:03:47.487Z,8.20
2023-04-15T20:06:15.510Z,8.20
2023-04-15T20:08:42.475Z,8.20
2023-04-15T20:11:09.802Z,8.10
2023-04-15T20:13:36.893Z,8.20
2023-04-15T20:16:07.594Z,8.20
2023-04-15T20:18:34.902Z,8.20
2023-04-15T20:21:01.691Z,8.20
2023-04-15T20:23:28.529Z,8.20
2023-04-15T20:25:55.334Z,8.20
2023-04-15T20:28:23.309Z,8.20
2023-04-15T20:30:50.211Z,8.20
2023-04-15T20:33:17.218Z,8.20
2023-04-15T20:35:44.097Z,8.20
2023-04-15T20:38:11.054Z,8.20
2023-04-15T20:40:38.745Z,8.10
2023-04-15T20:43:06.827Z,8.20
2023-04-15T20:45:33.660Z,8.20
2023-04-15T20:48:00.506Z,8.20
2023-04-15T20:50:27.321Z,8.10
2023-04-15T20:52:54.099Z,8.20
2023-04-15T20:55:20.880Z,8.20
2023-04-15T20:57:48.539Z,8.10
2023-04-15T21:00:15.901Z,8.10
2023-04-15T21:02:42.907Z,8.10
2023-04-15T21:05:09.881Z,8.20
2023-04-15T21:07:36.750Z,8.20
2023-04-15T21:10:03.680Z,8.20
2023-04-15T21:12:31.014Z,8.10
2023-04-15T21:14:57.770Z,8.20
2023-04-15T21:17:25.094Z,8.10
2023-04-15T21:19:51.920Z,8.10
2023-04-15T21:22:18.760Z,8.10
2023-04-15T21:24:45.568Z,8.10
2023-04-15T21:27:12.342Z,8.10
2023-04-15T21:29:40.267Z,8.10
2023-04-15T21:32:07.228Z,8.10
2023-04-15T21:34:34.244Z,8.10
2023-04-15T21:37:01.083Z,8.10
2023-04-15T21:39:28.294Z,8.10
2023-04-15T21:41:56.630Z,8.10
2023-04-15T21:44:24.060Z,8.10
2023-04-15T21:46:51.557Z,8.10
2023-04-15T21:49:20.157Z,8.00
2023-04-15T21:51:47.902Z,8.00
2023-04-15T21:54:14.663Z,8.00
2023-04-15T21:56:42.365Z,8.00
2023-04-15T21:59:09.204Z,8.00
2023-04-15T22:01:36.098Z,8.00
2023-04-15T22:04:03.116Z,8.00
2023-04-15T22:06:29.984Z,8.00
2023-04-15T22:08:57.954Z,8.00
2023-04-15T22:11:30.126Z,8.00
2023-04-15T22:13:58.138Z,8.00
2023-04-15T22:16:26.256Z,8.10
2023-04-15T22:18:53.616Z,8.00
2023-04-15T22:21:20.560Z,8.00
2023-04-15T22:23:48.315Z,8.00
2023-04-15T22:26:15.297Z,8.00
2023-04-15T22:28:42.147Z,8.00
2023-04-15T22:31:09.065Z,8.00
2023-04-15T22:33:35.959Z,8.00
2023-04-15T22:36:02.758Z,8.00
2023-04-15T22:38:29.590Z,8.10
2023-04-15T22:40:56.386Z,8.10
2023-04-15T22:43:23.226Z,8.10
2023-04-15T22:45:51.030Z,8.10
2023-04-15T22:48:18.784Z,8.00
2023-04-15T22:50:45.781Z,8.10
2023-04-15T22:53:12.914Z,8.10
2023-04-15T22:55:39.754Z,8.10
2023-04-15T22:58:06.549Z,8.10
2023-04-15T23:00:33.324Z,8.10
2023-04-15T23:03:00.445Z,8.10
2023-04-15T23:05:27.786Z,8.10
2023-04-15T23:07:54.771Z,8.10
2023-04-15T23:10:21.709Z,8.10
2023-04-15T23:12:48.524Z,8.10
2023-04-15T23:15:15.685Z,8.10
2023-04-15T23:17:43.338Z,8.10
2023-04-15T23:20:11.231Z,8.10
2023-04-15T23:22:38.454Z,8.10
2023-04-15T23:25:06.058Z,8.10
2023-04-15T23:27:32.880Z,8.10
2023-04-15T23:29:59.647Z,8.10
2023-04-15T23:32:27.242Z,8.10
2023-04-15T23:34:54.153Z,8.10
2023-04-15T23:37:21.031Z,8.10
2023-04-15T23:39:47.868Z,8.10
2023-04-15T23:42:14.677Z,8.10
2023-04-15T23:44:41.468Z,8.10
2023-04-15T23:47:08.285Z,8.10
2023-04-15T23:49:36.490Z,8.10
2023-04-15T23:52:03.530Z,8.10
2023-04-15T23:54:30.329Z,8.10
2023-04-15T23:56:57.125Z,8.10
2023-04-15T23:59:23.852Z,8.10
